OAL277 LGAV-LFMN
Flight info
| Callsign | OAL277 |
|---|---|
| Flight time | 2h 34m |
| Altitude | 34000 |
| Route | KOR UL53 IXONI DCT OLGAT DCT NAVAG DCT BEROK DCT ENOBA/N0454F350 Z185 ASBOP/N0381F190 Z185 BORDI |
| Aircraft | A321/M-SDE3FGHIRWY/LB1 |
Departure
| Time | 2026-05-04 18:22 |
|---|---|
| Airport | Athens Eleftherios Venizelos International Airport (LGAV) |
Arrival
| Time | 2026-05-04 20:57 |
|---|---|
| Airport | Nice-Côte d'Azur Airport (LFMN) |
| Time | Latitude | Longitude | Altitude | Speed | Heading |
|---|---|---|---|---|---|
| 2026-05-04 17:39 | 37.93463 | 23.94698 | 301 ft | 0 kts | 306° |
| 2026-05-04 18:12 | 37.93459 | 23.94705 | 301 ft | 4 kts | 306° |
| 2026-05-04 18:12 | 37.93443 | 23.94732 | 302 ft | 3 kts | 306° |
| 2026-05-04 18:12 | 37.93431 | 23.94753 | 301 ft | 4 kts | 290° |
| 2026-05-04 18:13 | 37.93428 | 23.94784 | 301 ft | 4 kts | 250° |
| 2026-05-04 18:13 | 37.93438 | 23.94805 | 301 ft | 0 kts | 217° |
| 2026-05-04 18:17 | 37.93437 | 23.94804 | 301 ft | 2 kts | 217° |
| 2026-05-04 18:17 | 37.93320 | 23.94693 | 302 ft | 16 kts | 214° |
| 2026-05-04 18:18 | 37.93238 | 23.94611 | 304 ft | 14 kts | 219° |
| 2026-05-04 18:18 | 37.93148 | 23.94588 | 301 ft | 13 kts | 183° |
| 2026-05-04 18:18 | 37.93079 | 23.94637 | 301 ft | 11 kts | 129° |
| 2026-05-04 18:18 | 37.93042 | 23.94675 | 300 ft | 10 kts | 170° |
| 2026-05-04 18:19 | 37.92871 | 23.94543 | 302 ft | 18 kts | 217° |
| 2026-05-04 18:19 | 37.92777 | 23.94454 | 302 ft | 16 kts | 216° |
| 2026-05-04 18:19 | 37.92693 | 23.94377 | 303 ft | 14 kts | 216° |
| 2026-05-04 18:20 | 37.92618 | 23.94305 | 304 ft | 13 kts | 220° |
| 2026-05-04 18:20 | 37.92556 | 23.94293 | 305 ft | 8 kts | 147° |
| 2026-05-04 18:20 | 37.92519 | 23.94353 | 309 ft | 10 kts | 126° |
| 2026-05-04 18:20 | 37.92486 | 23.94411 | 308 ft | 7 kts | 124° |
| 2026-05-04 18:21 | 37.92495 | 23.94461 | 308 ft | 6 kts | 49° |
| 2026-05-04 18:21 | 37.92529 | 23.94496 | 309 ft | 7 kts | 39° |
| 2026-05-04 18:21 | 37.92575 | 23.94540 | 306 ft | 15 kts | 36° |
| 2026-05-04 18:21 | 37.92852 | 23.94801 | 300 ft | 84 kts | 37° |
| 2026-05-04 18:22 | 37.93481 | 23.95399 | 284 ft | 140 kts | 37° |
| 2026-05-04 18:22 | 37.94381 | 23.96252 | 289 ft | 181 kts | 37° |
| 2026-05-04 18:22 | 37.95460 | 23.97288 | 472 ft | 201 kts | 38° |
| 2026-05-04 18:22 | 37.96540 | 23.98333 | 1284 ft | 191 kts | 37° |
| 2026-05-04 18:23 | 37.97577 | 23.99345 | 2023 ft | 186 kts | 36° |
| 2026-05-04 18:23 | 37.98589 | 24.00336 | 2627 ft | 182 kts | 35° |
| 2026-05-04 18:23 | 37.99592 | 24.01312 | 3158 ft | 181 kts | 34° |
| 2026-05-04 18:23 | 38.00589 | 24.02279 | 3652 ft | 181 kts | 34° |
| 2026-05-04 18:24 | 38.01632 | 24.03278 | 3890 ft | 196 kts | 34° |
| 2026-05-04 18:24 | 38.02756 | 24.04341 | 4157 ft | 207 kts | 33° |
| 2026-05-04 18:24 | 38.03954 | 24.05423 | 4413 ft | 218 kts | 27° |
| 2026-05-04 18:24 | 38.05472 | 24.05764 | 4538 ft | 236 kts | 347° |
| 2026-05-04 18:25 | 38.06928 | 24.04710 | 4953 ft | 253 kts | 314° |
| 2026-05-04 18:25 | 38.07699 | 24.02684 | 5562 ft | 266 kts | 281° |
| 2026-05-04 18:25 | 38.07787 | 24.00301 | 6238 ft | 272 kts | 274° |
| 2026-05-04 18:25 | 38.07775 | 23.97881 | 6927 ft | 275 kts | 273° |
| 2026-05-04 18:26 | 38.07736 | 23.95447 | 7617 ft | 277 kts | 272° |
| 2026-05-04 18:26 | 38.07694 | 23.92994 | 8277 ft | 279 kts | 273° |
| 2026-05-04 18:26 | 38.07659 | 23.90520 | 8999 ft | 281 kts | 273° |
| 2026-05-04 18:26 | 38.07629 | 23.88033 | 9701 ft | 283 kts | 272° |
| 2026-05-04 18:27 | 38.07603 | 23.85512 | 10297 ft | 287 kts | 273° |
| 2026-05-04 18:27 | 38.07584 | 23.82904 | 10482 ft | 306 kts | 273° |
| 2026-05-04 18:27 | 38.07568 | 23.80073 | 10614 ft | 327 kts | 273° |
| 2026-05-04 18:27 | 38.07550 | 23.77099 | 10743 ft | 346 kts | 272° |
| 2026-05-04 18:28 | 38.07527 | 23.73986 | 11001 ft | 358 kts | 272° |
| 2026-05-04 18:28 | 38.07499 | 23.70797 | 11497 ft | 364 kts | 272° |
| 2026-05-04 18:28 | 38.07464 | 23.67567 | 12045 ft | 368 kts | 272° |
| 2026-05-04 18:28 | 38.07425 | 23.64298 | 12584 ft | 372 kts | 272° |
| 2026-05-04 18:29 | 38.07388 | 23.60995 | 13134 ft | 377 kts | 272° |
| 2026-05-04 18:29 | 38.07352 | 23.57653 | 13664 ft | 381 kts | 271° |
| 2026-05-04 18:29 | 38.07316 | 23.54276 | 14171 ft | 385 kts | 271° |
| 2026-05-04 18:29 | 38.07280 | 23.50869 | 14674 ft | 387 kts | 271° |
| 2026-05-04 18:30 | 38.07206 | 23.43991 | 15696 ft | 392 kts | 271° |
| 2026-05-04 18:30 | 38.07170 | 23.40517 | 16200 ft | 394 kts | 271° |
| 2026-05-04 18:30 | 38.07130 | 23.37026 | 16699 ft | 397 kts | 270° |
| 2026-05-04 18:31 | 38.07087 | 23.33525 | 17192 ft | 399 kts | 270° |
| 2026-05-04 18:31 | 38.07041 | 23.29994 | 17673 ft | 401 kts | 270° |
| 2026-05-04 18:31 | 38.06996 | 23.26448 | 18147 ft | 403 kts | 270° |
| 2026-05-04 18:31 | 38.06951 | 23.22877 | 18593 ft | 406 kts | 270° |
| 2026-05-04 18:32 | 38.06905 | 23.19288 | 19004 ft | 408 kts | 270° |
| 2026-05-04 18:32 | 38.06858 | 23.15687 | 19420 ft | 409 kts | 270° |
| 2026-05-04 18:32 | 38.06807 | 23.12070 | 19842 ft | 411 kts | 270° |
| 2026-05-04 18:32 | 38.06757 | 23.08443 | 20257 ft | 412 kts | 271° |
| 2026-05-04 18:33 | 38.06704 | 23.04803 | 20675 ft | 413 kts | 271° |
| 2026-05-04 18:33 | 38.06652 | 23.01154 | 21096 ft | 414 kts | 271° |
| 2026-05-04 18:33 | 38.06596 | 22.97492 | 21533 ft | 415 kts | 272° |
| 2026-05-04 18:33 | 38.06540 | 22.93826 | 21969 ft | 416 kts | 272° |
| 2026-05-04 18:34 | 38.06484 | 22.90157 | 22422 ft | 417 kts | 272° |
| 2026-05-04 18:34 | 38.06426 | 22.86470 | 22853 ft | 418 kts | 273° |
| 2026-05-04 18:34 | 38.06365 | 22.82739 | 23273 ft | 419 kts | 273° |
| 2026-05-04 18:34 | 38.06301 | 22.79041 | 23682 ft | 420 kts | 273° |
| 2026-05-04 18:35 | 38.06258 | 22.75337 | 24011 ft | 419 kts | 277° |
| 2026-05-04 18:35 | 38.06602 | 22.71694 | 24332 ft | 414 kts | 287° |
| 2026-05-04 18:35 | 38.07448 | 22.68237 | 24640 ft | 409 kts | 296° |
| 2026-05-04 18:35 | 38.08747 | 22.65049 | 24968 ft | 406 kts | 306° |
| 2026-05-04 18:36 | 38.10349 | 22.62106 | 25277 ft | 405 kts | 308° |
| 2026-05-04 18:36 | 38.11968 | 22.59163 | 25596 ft | 406 kts | 308° |
| 2026-05-04 18:36 | 38.13580 | 22.56219 | 25906 ft | 407 kts | 308° |
| 2026-05-04 18:36 | 38.15196 | 22.53256 | 26201 ft | 408 kts | 308° |
| 2026-05-04 18:37 | 38.16810 | 22.50290 | 26507 ft | 409 kts | 308° |
| 2026-05-04 18:37 | 38.18432 | 22.47311 | 26792 ft | 410 kts | 308° |
| 2026-05-04 18:37 | 38.20056 | 22.44329 | 27069 ft | 411 kts | 308° |
| 2026-05-04 18:37 | 38.21683 | 22.41336 | 27347 ft | 412 kts | 308° |
| 2026-05-04 18:38 | 38.23317 | 22.38330 | 27616 ft | 414 kts | 308° |
| 2026-05-04 18:38 | 38.24955 | 22.35316 | 27895 ft | 415 kts | 308° |
| 2026-05-04 18:38 | 38.26597 | 22.32286 | 28170 ft | 416 kts | 308° |
| 2026-05-04 18:38 | 38.28235 | 22.29258 | 28508 ft | 415 kts | 308° |
| 2026-05-04 18:39 | 38.29871 | 22.26230 | 28888 ft | 414 kts | 308° |
| 2026-05-04 18:39 | 38.31499 | 22.23224 | 29269 ft | 412 kts | 308° |
| 2026-05-04 18:39 | 38.33179 | 22.20289 | 29639 ft | 409 kts | 310° |
| 2026-05-04 18:39 | 38.34940 | 22.17443 | 30006 ft | 408 kts | 312° |
| 2026-05-04 18:40 | 38.36735 | 22.14657 | 30348 ft | 406 kts | 312° |
| 2026-05-04 18:40 | 38.38535 | 22.11890 | 30619 ft | 405 kts | 312° |
| 2026-05-04 18:40 | 38.40324 | 22.09122 | 30893 ft | 405 kts | 312° |
| 2026-05-04 18:40 | 38.42100 | 22.06330 | 31192 ft | 405 kts | 311° |
| 2026-05-04 18:41 | 38.43854 | 22.03536 | 31480 ft | 404 kts | 311° |
| 2026-05-04 18:41 | 38.45603 | 22.00725 | 31783 ft | 404 kts | 311° |
| 2026-05-04 18:41 | 38.47345 | 21.97913 | 32044 ft | 404 kts | 311° |
| 2026-05-04 18:41 | 38.49086 | 21.95104 | 32315 ft | 404 kts | 311° |
| 2026-05-04 18:42 | 38.50836 | 21.92285 | 32583 ft | 404 kts | 311° |
| 2026-05-04 18:42 | 38.52604 | 21.89436 | 32843 ft | 404 kts | 311° |
| 2026-05-04 18:42 | 38.54329 | 21.86658 | 33099 ft | 404 kts | 311° |
| 2026-05-04 18:42 | 38.56096 | 21.83806 | 33364 ft | 404 kts | 311° |
| 2026-05-04 18:43 | 38.57835 | 21.80995 | 33650 ft | 404 kts | 311° |
| 2026-05-04 18:43 | 38.59575 | 21.78183 | 33912 ft | 403 kts | 311° |
| 2026-05-04 18:43 | 38.61313 | 21.75370 | 34112 ft | 404 kts | 311° |
| 2026-05-04 18:44 | 38.64788 | 21.69741 | 34167 ft | 402 kts | 311° |
| 2026-05-04 18:44 | 38.68251 | 21.64129 | 34167 ft | 401 kts | 311° |
| 2026-05-04 18:45 | 38.71709 | 21.58532 | 34168 ft | 401 kts | 311° |
| 2026-05-04 18:45 | 38.75155 | 21.52923 | 34164 ft | 401 kts | 311° |
| 2026-05-04 18:46 | 38.78596 | 21.47302 | 34162 ft | 401 kts | 311° |
| 2026-05-04 18:46 | 38.82041 | 21.41684 | 34161 ft | 401 kts | 311° |
| 2026-05-04 18:47 | 38.85489 | 21.36057 | 34158 ft | 401 kts | 310° |
| 2026-05-04 18:47 | 38.88921 | 21.30430 | 34157 ft | 401 kts | 310° |
| 2026-05-04 18:48 | 38.92352 | 21.24791 | 34158 ft | 400 kts | 310° |
| 2026-05-04 18:48 | 38.95776 | 21.19156 | 34161 ft | 400 kts | 310° |
| 2026-05-04 18:49 | 38.99218 | 21.13480 | 34150 ft | 400 kts | 310° |
| 2026-05-04 18:49 | 39.02635 | 21.07836 | 34152 ft | 399 kts | 310° |
| 2026-05-04 18:50 | 39.06048 | 21.02209 | 34147 ft | 399 kts | 310° |
| 2026-05-04 18:50 | 39.09459 | 20.96578 | 34137 ft | 399 kts | 310° |
| 2026-05-04 18:51 | 39.12856 | 20.90931 | 34142 ft | 399 kts | 310° |
| 2026-05-04 18:51 | 39.15682 | 20.86237 | 34142 ft | 399 kts | 310° |
| 2026-05-04 18:52 | 39.19082 | 20.80579 | 34129 ft | 399 kts | 310° |
| 2026-05-04 18:52 | 39.22483 | 20.74913 | 34138 ft | 400 kts | 310° |
| 2026-05-04 18:53 | 39.25883 | 20.69243 | 34131 ft | 400 kts | 310° |
| 2026-05-04 18:53 | 39.29280 | 20.63559 | 34135 ft | 400 kts | 310° |
| 2026-05-04 18:54 | 39.32701 | 20.57833 | 34128 ft | 400 kts | 310° |
| 2026-05-04 18:54 | 39.36095 | 20.52132 | 34136 ft | 400 kts | 310° |
| 2026-05-04 18:55 | 39.39486 | 20.46417 | 34124 ft | 400 kts | 310° |
| 2026-05-04 18:55 | 39.44570 | 20.37834 | 34128 ft | 401 kts | 310° |
| 2026-05-04 18:56 | 39.47963 | 20.32111 | 34126 ft | 401 kts | 310° |
| 2026-05-04 18:56 | 39.51355 | 20.26378 | 34118 ft | 401 kts | 310° |
| 2026-05-04 18:57 | 39.54742 | 20.20642 | 34116 ft | 401 kts | 310° |
| 2026-05-04 18:57 | 39.58127 | 20.14877 | 34115 ft | 402 kts | 310° |
| 2026-05-04 18:58 | 39.61510 | 20.09115 | 34118 ft | 402 kts | 310° |
| 2026-05-04 18:58 | 39.64899 | 20.03348 | 34119 ft | 402 kts | 309° |
| 2026-05-04 18:59 | 39.68285 | 19.97569 | 34119 ft | 402 kts | 309° |
| 2026-05-04 18:59 | 39.71692 | 19.91743 | 34121 ft | 403 kts | 309° |
| 2026-05-04 19:00 | 39.75080 | 19.85940 | 34121 ft | 403 kts | 309° |
| 2026-05-04 19:00 | 39.78464 | 19.80123 | 34123 ft | 404 kts | 309° |
| 2026-05-04 19:01 | 39.81846 | 19.74297 | 34123 ft | 404 kts | 309° |
| 2026-05-04 19:01 | 39.85227 | 19.68462 | 34117 ft | 404 kts | 309° |
| 2026-05-04 19:02 | 39.88601 | 19.62624 | 34119 ft | 404 kts | 309° |
| 2026-05-04 19:02 | 39.91984 | 19.56778 | 34122 ft | 404 kts | 309° |
| 2026-05-04 19:03 | 39.95363 | 19.50929 | 34120 ft | 404 kts | 309° |
| 2026-05-04 19:03 | 39.98747 | 19.45068 | 34120 ft | 404 kts | 309° |
| 2026-05-04 19:04 | 40.02119 | 19.39192 | 34125 ft | 405 kts | 309° |
| 2026-05-04 19:04 | 40.05487 | 19.33301 | 34123 ft | 405 kts | 309° |
| 2026-05-04 19:05 | 40.08862 | 19.27416 | 34128 ft | 405 kts | 309° |
| 2026-05-04 19:05 | 40.12235 | 19.21526 | 34127 ft | 405 kts | 308° |
| 2026-05-04 19:06 | 40.15621 | 19.15582 | 34128 ft | 405 kts | 308° |
| 2026-05-04 19:06 | 40.18986 | 19.09666 | 34123 ft | 405 kts | 308° |
| 2026-05-04 19:07 | 40.22329 | 19.03784 | 34132 ft | 405 kts | 308° |
| 2026-05-04 19:07 | 40.25688 | 18.97789 | 34127 ft | 406 kts | 307° |
| 2026-05-04 19:08 | 40.28856 | 18.91669 | 34129 ft | 406 kts | 306° |
| 2026-05-04 19:08 | 40.31964 | 18.85482 | 34127 ft | 406 kts | 305° |
| 2026-05-04 19:09 | 40.35093 | 18.79309 | 34128 ft | 406 kts | 306° |
| 2026-05-04 19:09 | 40.38244 | 18.73165 | 34124 ft | 406 kts | 306° |
| 2026-05-04 19:10 | 40.41393 | 18.67006 | 34128 ft | 406 kts | 306° |
| 2026-05-04 19:10 | 40.44534 | 18.60836 | 34123 ft | 407 kts | 306° |
| 2026-05-04 19:11 | 40.47675 | 18.54662 | 34119 ft | 407 kts | 306° |
| 2026-05-04 19:11 | 40.50815 | 18.48480 | 34117 ft | 407 kts | 305° |
| 2026-05-04 19:12 | 40.55517 | 18.39173 | 34112 ft | 407 kts | 305° |
| 2026-05-04 19:13 | 40.58656 | 18.32965 | 34119 ft | 408 kts | 305° |
| 2026-05-04 19:13 | 40.61791 | 18.26751 | 34121 ft | 408 kts | 305° |
| 2026-05-04 19:14 | 40.64922 | 18.20528 | 34123 ft | 408 kts | 305° |
| 2026-05-04 19:14 | 40.68066 | 18.14254 | 34122 ft | 408 kts | 305° |
| 2026-05-04 19:15 | 40.71193 | 18.08010 | 34125 ft | 408 kts | 304° |
| 2026-05-04 19:15 | 40.74318 | 18.01766 | 34124 ft | 408 kts | 304° |
| 2026-05-04 19:16 | 40.77437 | 17.95519 | 34130 ft | 408 kts | 304° |
| 2026-05-04 19:16 | 40.80549 | 17.89264 | 34130 ft | 407 kts | 304° |
| 2026-05-04 19:17 | 40.83653 | 17.83004 | 34131 ft | 407 kts | 304° |
| 2026-05-04 19:17 | 40.86749 | 17.76755 | 34137 ft | 406 kts | 304° |
| 2026-05-04 19:18 | 40.89844 | 17.70517 | 34137 ft | 406 kts | 304° |
| 2026-05-04 19:18 | 40.92932 | 17.64285 | 34138 ft | 405 kts | 304° |
| 2026-05-04 19:19 | 40.96003 | 17.58049 | 34142 ft | 404 kts | 304° |
| 2026-05-04 19:19 | 40.99066 | 17.51812 | 34139 ft | 404 kts | 304° |
| 2026-05-04 19:20 | 41.02117 | 17.45582 | 34134 ft | 403 kts | 304° |
| 2026-05-04 19:20 | 41.05164 | 17.39359 | 34137 ft | 402 kts | 304° |
| 2026-05-04 19:21 | 41.08206 | 17.33138 | 34133 ft | 402 kts | 304° |
| 2026-05-04 19:21 | 41.11239 | 17.26930 | 34133 ft | 401 kts | 304° |
| 2026-05-04 19:22 | 41.14258 | 17.20714 | 34130 ft | 401 kts | 303° |
| 2026-05-04 19:22 | 41.17276 | 17.14498 | 34123 ft | 400 kts | 303° |
| 2026-05-04 19:23 | 41.20288 | 17.08289 | 34120 ft | 400 kts | 303° |
| 2026-05-04 19:23 | 41.23311 | 17.02043 | 34114 ft | 399 kts | 303° |
| 2026-05-04 19:24 | 41.26314 | 16.95839 | 34111 ft | 399 kts | 303° |
| 2026-05-04 19:24 | 41.29306 | 16.89635 | 34112 ft | 398 kts | 303° |
| 2026-05-04 19:25 | 41.31788 | 16.84472 | 34112 ft | 398 kts | 303° |
| 2026-05-04 19:25 | 41.34766 | 16.78269 | 34110 ft | 398 kts | 303° |
| 2026-05-04 19:26 | 41.37744 | 16.72050 | 34109 ft | 398 kts | 303° |
| 2026-05-04 19:26 | 41.40716 | 16.65842 | 34109 ft | 398 kts | 303° |
| 2026-05-04 19:27 | 41.43686 | 16.59625 | 34111 ft | 398 kts | 303° |
| 2026-05-04 19:27 | 41.46647 | 16.53406 | 34115 ft | 397 kts | 303° |
| 2026-05-04 19:28 | 41.49606 | 16.47178 | 34108 ft | 397 kts | 303° |
| 2026-05-04 19:28 | 41.52582 | 16.40906 | 34107 ft | 397 kts | 303° |
| 2026-05-04 19:29 | 41.55534 | 16.34669 | 34108 ft | 397 kts | 302° |
| 2026-05-04 19:29 | 41.58477 | 16.28438 | 34104 ft | 397 kts | 302° |
| 2026-05-04 19:30 | 41.61416 | 16.22196 | 34106 ft | 397 kts | 302° |
| 2026-05-04 19:30 | 41.64353 | 16.15956 | 34106 ft | 396 kts | 302° |
| 2026-05-04 19:31 | 41.67284 | 16.09709 | 34104 ft | 396 kts | 302° |
| 2026-05-04 19:31 | 41.70211 | 16.03466 | 34122 ft | 396 kts | 302° |
| 2026-05-04 19:32 | 41.73134 | 15.97219 | 34128 ft | 396 kts | 302° |
| 2026-05-04 19:32 | 41.76047 | 15.90972 | 34139 ft | 395 kts | 302° |
| 2026-05-04 19:33 | 41.78953 | 15.84724 | 34146 ft | 395 kts | 302° |
| 2026-05-04 19:33 | 41.81857 | 15.78478 | 34153 ft | 395 kts | 302° |
| 2026-05-04 19:34 | 41.84750 | 15.72229 | 34157 ft | 394 kts | 302° |
| 2026-05-04 19:34 | 41.87640 | 15.65987 | 34148 ft | 394 kts | 302° |
| 2026-05-04 19:35 | 41.90524 | 15.59735 | 34140 ft | 393 kts | 302° |
| 2026-05-04 19:35 | 41.93402 | 15.53489 | 34128 ft | 393 kts | 302° |
| 2026-05-04 19:36 | 41.96291 | 15.47208 | 34114 ft | 392 kts | 302° |
| 2026-05-04 19:36 | 41.99152 | 15.40968 | 34101 ft | 392 kts | 302° |
| 2026-05-04 19:37 | 42.02013 | 15.34731 | 34084 ft | 391 kts | 302° |
| 2026-05-04 19:37 | 42.04864 | 15.28494 | 34082 ft | 391 kts | 302° |
| 2026-05-04 19:38 | 42.07707 | 15.22259 | 34082 ft | 391 kts | 302° |
| 2026-05-04 19:38 | 42.10541 | 15.16027 | 34080 ft | 390 kts | 301° |
| 2026-05-04 19:39 | 42.13373 | 15.09789 | 34079 ft | 390 kts | 301° |
| 2026-05-04 19:39 | 42.16197 | 15.03552 | 34078 ft | 390 kts | 301° |
| 2026-05-04 19:40 | 42.19020 | 14.97314 | 34078 ft | 390 kts | 301° |
| 2026-05-04 19:40 | 42.21839 | 14.91076 | 34079 ft | 389 kts | 301° |
| 2026-05-04 19:41 | 42.24653 | 14.84836 | 34078 ft | 389 kts | 301° |
| 2026-05-04 19:41 | 42.27454 | 14.78593 | 34080 ft | 389 kts | 301° |
| 2026-05-04 19:42 | 42.30250 | 14.72348 | 34080 ft | 389 kts | 301° |
| 2026-05-04 19:42 | 42.33043 | 14.66092 | 34077 ft | 389 kts | 301° |
| 2026-05-04 19:43 | 42.35839 | 14.59838 | 34083 ft | 389 kts | 301° |
| 2026-05-04 19:43 | 42.38656 | 14.53531 | 34086 ft | 389 kts | 301° |
| 2026-05-04 19:44 | 42.41429 | 14.47304 | 34090 ft | 389 kts | 300° |
| 2026-05-04 19:44 | 42.44232 | 14.40988 | 34091 ft | 389 kts | 300° |
| 2026-05-04 19:45 | 42.47012 | 14.34700 | 34094 ft | 389 kts | 300° |
| 2026-05-04 19:45 | 42.49791 | 14.28409 | 34095 ft | 389 kts | 300° |
| 2026-05-04 19:46 | 42.52572 | 14.22115 | 34098 ft | 389 kts | 300° |
| 2026-05-04 19:46 | 42.55345 | 14.15810 | 34096 ft | 389 kts | 300° |
| 2026-05-04 19:47 | 42.58105 | 14.09497 | 34096 ft | 389 kts | 300° |
| 2026-05-04 19:47 | 42.60906 | 14.03225 | 34092 ft | 389 kts | 300° |
| 2026-05-04 19:48 | 42.63748 | 13.96958 | 34093 ft | 389 kts | 300° |
| 2026-05-04 19:48 | 42.66598 | 13.90643 | 34090 ft | 389 kts | 300° |
| 2026-05-04 19:49 | 42.69419 | 13.84351 | 34095 ft | 390 kts | 300° |
| 2026-05-04 19:49 | 42.72229 | 13.78050 | 34093 ft | 390 kts | 300° |
| 2026-05-04 19:50 | 42.75035 | 13.71750 | 34096 ft | 390 kts | 300° |
| 2026-05-04 19:50 | 42.77848 | 13.65421 | 34101 ft | 390 kts | 300° |
| 2026-05-04 19:51 | 42.80654 | 13.59093 | 34103 ft | 390 kts | 300° |
| 2026-05-04 19:51 | 42.83458 | 13.52762 | 34111 ft | 390 kts | 299° |
| 2026-05-04 19:52 | 42.86264 | 13.46427 | 34113 ft | 390 kts | 299° |
| 2026-05-04 19:52 | 42.89061 | 13.40089 | 34106 ft | 390 kts | 299° |
| 2026-05-04 19:53 | 42.91846 | 13.33740 | 34107 ft | 390 kts | 299° |
| 2026-05-04 19:53 | 42.94638 | 13.27381 | 34111 ft | 390 kts | 299° |
| 2026-05-04 19:54 | 42.97427 | 13.21017 | 34113 ft | 391 kts | 298° |
| 2026-05-04 19:54 | 43.00216 | 13.14633 | 34118 ft | 391 kts | 298° |
| 2026-05-04 19:55 | 43.03003 | 13.08249 | 34118 ft | 392 kts | 298° |
| 2026-05-04 19:55 | 43.05795 | 13.01841 | 34124 ft | 391 kts | 298° |
| 2026-05-04 19:56 | 43.08596 | 12.95393 | 34117 ft | 392 kts | 298° |
| 2026-05-04 19:56 | 43.11378 | 12.88983 | 34119 ft | 392 kts | 298° |
| 2026-05-04 19:57 | 43.14161 | 12.82553 | 34122 ft | 393 kts | 298° |
| 2026-05-04 19:57 | 43.16941 | 12.76106 | 34121 ft | 393 kts | 298° |
| 2026-05-04 19:58 | 43.19243 | 12.70750 | 34119 ft | 393 kts | 297° |
| 2026-05-04 19:58 | 43.22014 | 12.64286 | 34118 ft | 393 kts | 297° |
| 2026-05-04 19:59 | 43.24790 | 12.57823 | 34120 ft | 393 kts | 297° |
| 2026-05-04 19:59 | 43.27565 | 12.51355 | 34125 ft | 393 kts | 297° |
| 2026-05-04 20:00 | 43.30335 | 12.44870 | 34123 ft | 394 kts | 297° |
| 2026-05-04 20:00 | 43.33101 | 12.38367 | 34119 ft | 395 kts | 297° |
| 2026-05-04 20:01 | 43.35867 | 12.31846 | 34116 ft | 395 kts | 297° |
| 2026-05-04 20:01 | 43.38654 | 12.25274 | 34121 ft | 396 kts | 297° |
| 2026-05-04 20:02 | 43.41421 | 12.18726 | 34117 ft | 396 kts | 297° |
| 2026-05-04 20:02 | 43.44189 | 12.12170 | 34119 ft | 397 kts | 297° |
| 2026-05-04 20:03 | 43.46963 | 12.05601 | 34121 ft | 397 kts | 297° |
| 2026-05-04 20:03 | 43.49730 | 11.99024 | 34115 ft | 397 kts | 296° |
| 2026-05-04 20:04 | 43.52492 | 11.92424 | 34119 ft | 398 kts | 296° |
| 2026-05-04 20:04 | 43.55259 | 11.85803 | 34122 ft | 398 kts | 296° |
| 2026-05-04 20:05 | 43.58021 | 11.79183 | 34117 ft | 399 kts | 296° |
| 2026-05-04 20:05 | 43.60782 | 11.72551 | 34121 ft | 399 kts | 296° |
| 2026-05-04 20:06 | 43.63550 | 11.65893 | 34126 ft | 400 kts | 296° |
| 2026-05-04 20:06 | 43.66315 | 11.59224 | 34118 ft | 400 kts | 296° |
| 2026-05-04 20:07 | 43.69069 | 11.52539 | 34113 ft | 401 kts | 296° |
| 2026-05-04 20:07 | 43.71834 | 11.45839 | 34108 ft | 401 kts | 296° |
| 2026-05-04 20:08 | 43.74598 | 11.39141 | 34100 ft | 402 kts | 296° |
| 2026-05-04 20:08 | 43.77362 | 11.32412 | 34099 ft | 402 kts | 295° |
| 2026-05-04 20:09 | 43.80135 | 11.25626 | 34102 ft | 403 kts | 295° |
| 2026-05-04 20:09 | 43.82895 | 11.18875 | 34101 ft | 403 kts | 295° |
| 2026-05-04 20:10 | 43.85657 | 11.12105 | 34103 ft | 403 kts | 295° |
| 2026-05-04 20:10 | 43.88417 | 11.05327 | 34107 ft | 404 kts | 295° |
| 2026-05-04 20:11 | 43.91176 | 10.98536 | 34114 ft | 404 kts | 295° |
| 2026-05-04 20:11 | 43.93925 | 10.91732 | 34130 ft | 405 kts | 295° |
| 2026-05-04 20:12 | 43.96674 | 10.84910 | 34147 ft | 405 kts | 295° |
| 2026-05-04 20:12 | 43.99427 | 10.78077 | 34173 ft | 405 kts | 295° |
| 2026-05-04 20:13 | 44.02183 | 10.71242 | 34181 ft | 406 kts | 295° |
| 2026-05-04 20:13 | 44.04928 | 10.64389 | 34189 ft | 406 kts | 294° |
| 2026-05-04 20:14 | 44.07667 | 10.57524 | 34191 ft | 406 kts | 294° |
| 2026-05-04 20:14 | 44.10404 | 10.50649 | 34191 ft | 406 kts | 294° |
| 2026-05-04 20:15 | 44.13139 | 10.43766 | 34175 ft | 407 kts | 294° |
| 2026-05-04 20:15 | 44.15770 | 10.36806 | 34144 ft | 403 kts | 287° |
| 2026-05-04 20:16 | 44.17001 | 10.29300 | 34128 ft | 396 kts | 273° |
| 2026-05-04 20:16 | 44.17550 | 10.21615 | 34115 ft | 397 kts | 273° |
| 2026-05-04 20:17 | 44.18107 | 10.13961 | 34104 ft | 397 kts | 273° |
| 2026-05-04 20:17 | 44.18667 | 10.06301 | 34102 ft | 398 kts | 273° |
| 2026-05-04 20:18 | 44.19223 | 9.98626 | 34098 ft | 398 kts | 273° |
| 2026-05-04 20:18 | 44.19768 | 9.90941 | 34098 ft | 398 kts | 273° |
| 2026-05-04 20:19 | 44.20314 | 9.83257 | 34098 ft | 399 kts | 273° |
| 2026-05-04 20:19 | 44.20860 | 9.75556 | 34098 ft | 399 kts | 273° |
| 2026-05-04 20:20 | 44.21392 | 9.67845 | 34096 ft | 400 kts | 272° |
| 2026-05-04 20:20 | 44.21913 | 9.60139 | 34094 ft | 400 kts | 272° |
| 2026-05-04 20:21 | 44.22427 | 9.52409 | 34080 ft | 400 kts | 272° |
| 2026-05-04 20:21 | 44.23202 | 9.40819 | 34080 ft | 401 kts | 272° |
| 2026-05-04 20:22 | 44.23717 | 9.33074 | 34076 ft | 401 kts | 272° |
| 2026-05-04 20:22 | 44.24221 | 9.25323 | 34089 ft | 401 kts | 272° |
| 2026-05-04 20:23 | 44.24722 | 9.17565 | 34092 ft | 402 kts | 272° |
| 2026-05-04 20:23 | 44.25215 | 9.09803 | 34097 ft | 402 kts | 272° |
| 2026-05-04 20:24 | 44.25708 | 9.02031 | 34096 ft | 402 kts | 272° |
| 2026-05-04 20:24 | 44.26196 | 8.94253 | 34093 ft | 403 kts | 272° |
| 2026-05-04 20:25 | 44.26684 | 8.86410 | 34103 ft | 403 kts | 271° |
| 2026-05-04 20:25 | 44.27156 | 8.78612 | 34102 ft | 404 kts | 271° |
| 2026-05-04 20:26 | 44.27394 | 8.74696 | 33602 ft | 406 kts | 271° |
| 2026-05-04 20:26 | 44.27631 | 8.70765 | 33007 ft | 407 kts | 271° |
| 2026-05-04 20:26 | 44.27866 | 8.66815 | 32370 ft | 410 kts | 271° |
| 2026-05-04 20:26 | 44.28102 | 8.62825 | 31725 ft | 414 kts | 271° |
| 2026-05-04 20:27 | 44.28339 | 8.58799 | 31098 ft | 419 kts | 271° |
| 2026-05-04 20:27 | 44.28579 | 8.54728 | 30484 ft | 423 kts | 271° |
| 2026-05-04 20:27 | 44.28819 | 8.50620 | 29830 ft | 427 kts | 271° |
| 2026-05-04 20:27 | 44.29061 | 8.46482 | 29143 ft | 428 kts | 271° |
| 2026-05-04 20:28 | 44.29302 | 8.42356 | 28449 ft | 426 kts | 271° |
| 2026-05-04 20:28 | 44.29540 | 8.38250 | 27790 ft | 424 kts | 271° |
| 2026-05-04 20:28 | 44.29500 | 8.34166 | 27135 ft | 418 kts | 261° |
| 2026-05-04 20:28 | 44.28911 | 8.30225 | 26506 ft | 413 kts | 250° |
| 2026-05-04 20:29 | 44.27816 | 8.26546 | 25888 ft | 409 kts | 240° |
| 2026-05-04 20:29 | 44.26296 | 8.23213 | 25277 ft | 406 kts | 234° |
| 2026-05-04 20:29 | 44.24687 | 8.19978 | 24682 ft | 405 kts | 234° |
| 2026-05-04 20:29 | 44.23087 | 8.16756 | 24101 ft | 404 kts | 234° |
| 2026-05-04 20:30 | 44.21494 | 8.13548 | 23500 ft | 402 kts | 234° |
| 2026-05-04 20:30 | 44.19905 | 8.10349 | 22816 ft | 400 kts | 234° |
| 2026-05-04 20:30 | 44.18322 | 8.07166 | 22158 ft | 398 kts | 234° |
| 2026-05-04 20:30 | 44.16746 | 8.04004 | 21511 ft | 397 kts | 234° |
| 2026-05-04 20:31 | 44.15176 | 8.00864 | 21002 ft | 391 kts | 234° |
| 2026-05-04 20:31 | 44.13632 | 7.97784 | 20543 ft | 385 kts | 234° |
| 2026-05-04 20:31 | 44.12111 | 7.94743 | 20086 ft | 380 kts | 234° |
| 2026-05-04 20:31 | 44.11097 | 7.92708 | 19781 ft | 376 kts | 234° |
| 2026-05-04 20:32 | 44.09612 | 7.89739 | 19350 ft | 372 kts | 234° |
| 2026-05-04 20:32 | 44.08143 | 7.86804 | 18909 ft | 367 kts | 234° |
| 2026-05-04 20:32 | 44.06692 | 7.83906 | 18458 ft | 364 kts | 234° |
| 2026-05-04 20:32 | 44.05252 | 7.81034 | 17989 ft | 359 kts | 234° |
| 2026-05-04 20:33 | 44.03830 | 7.78209 | 17545 ft | 355 kts | 234° |
| 2026-05-04 20:33 | 44.02422 | 7.75411 | 17093 ft | 351 kts | 233° |
| 2026-05-04 20:33 | 44.01026 | 7.72646 | 16892 ft | 354 kts | 233° |
| 2026-05-04 20:33 | 43.99596 | 7.69821 | 16704 ft | 359 kts | 233° |
| 2026-05-04 20:34 | 43.98157 | 7.66973 | 16516 ft | 360 kts | 234° |
| 2026-05-04 20:34 | 43.96725 | 7.64125 | 16312 ft | 360 kts | 234° |
| 2026-05-04 20:34 | 43.95295 | 7.61285 | 16117 ft | 359 kts | 234° |
| 2026-05-04 20:34 | 43.93866 | 7.58450 | 15926 ft | 358 kts | 233° |
| 2026-05-04 20:35 | 43.92443 | 7.55639 | 15736 ft | 357 kts | 233° |
| 2026-05-04 20:35 | 43.91010 | 7.52813 | 15534 ft | 357 kts | 233° |
| 2026-05-04 20:35 | 43.89584 | 7.50005 | 15338 ft | 356 kts | 233° |
| 2026-05-04 20:35 | 43.88156 | 7.47196 | 15143 ft | 356 kts | 233° |
| 2026-05-04 20:36 | 43.86650 | 7.44436 | 14942 ft | 354 kts | 224° |
| 2026-05-04 20:36 | 43.84698 | 7.42478 | 14758 ft | 352 kts | 204° |
| 2026-05-04 20:36 | 43.82314 | 7.41619 | 14560 ft | 352 kts | 184° |
| 2026-05-04 20:36 | 43.79894 | 7.42013 | 14371 ft | 353 kts | 163° |
| 2026-05-04 20:37 | 43.77719 | 7.43599 | 14156 ft | 357 kts | 144° |
| 2026-05-04 20:37 | 43.75776 | 7.45752 | 13967 ft | 357 kts | 143° |
| 2026-05-04 20:37 | 43.73847 | 7.47912 | 13754 ft | 356 kts | 143° |
| 2026-05-04 20:37 | 43.71928 | 7.50064 | 13535 ft | 355 kts | 143° |
| 2026-05-04 20:38 | 43.70024 | 7.52223 | 13341 ft | 354 kts | 140° |
| 2026-05-04 20:38 | 43.68377 | 7.54747 | 13141 ft | 355 kts | 128° |
| 2026-05-04 20:38 | 43.67156 | 7.57714 | 12954 ft | 357 kts | 115° |
| 2026-05-04 20:38 | 43.66307 | 7.60937 | 12759 ft | 357 kts | 112° |
| 2026-05-04 20:39 | 43.65485 | 7.64156 | 12565 ft | 356 kts | 112° |
| 2026-05-04 20:39 | 43.64654 | 7.67377 | 12369 ft | 354 kts | 112° |
| 2026-05-04 20:39 | 43.63827 | 7.70567 | 12177 ft | 353 kts | 112° |
| 2026-05-04 20:39 | 43.63002 | 7.73748 | 11981 ft | 351 kts | 112° |
| 2026-05-04 20:40 | 43.62178 | 7.76929 | 11782 ft | 351 kts | 112° |
| 2026-05-04 20:40 | 43.61363 | 7.80083 | 11531 ft | 349 kts | 112° |
| 2026-05-04 20:40 | 43.60550 | 7.83231 | 11222 ft | 347 kts | 112° |
| 2026-05-04 20:40 | 43.59744 | 7.86356 | 10855 ft | 344 kts | 112° |
| 2026-05-04 20:41 | 43.58942 | 7.89453 | 10499 ft | 342 kts | 112° |
| 2026-05-04 20:41 | 43.58140 | 7.92542 | 10136 ft | 340 kts | 112° |
| 2026-05-04 20:41 | 43.57355 | 7.95571 | 9752 ft | 327 kts | 112° |
| 2026-05-04 20:41 | 43.56619 | 7.98424 | 9355 ft | 305 kts | 112° |
| 2026-05-04 20:42 | 43.55927 | 8.01096 | 8963 ft | 287 kts | 114° |
| 2026-05-04 20:42 | 43.55008 | 8.03446 | 8577 ft | 274 kts | 132° |
| 2026-05-04 20:42 | 43.53589 | 8.05129 | 8200 ft | 268 kts | 152° |
| 2026-05-04 20:42 | 43.51843 | 8.05973 | 7830 ft | 267 kts | 172° |
| 2026-05-04 20:43 | 43.49996 | 8.05881 | 7461 ft | 267 kts | 192° |
| 2026-05-04 20:43 | 43.48280 | 8.04845 | 7083 ft | 268 kts | 213° |
| 2026-05-04 20:43 | 43.46989 | 8.03045 | 6780 ft | 271 kts | 234° |
| 2026-05-04 20:43 | 43.46192 | 8.00639 | 6543 ft | 275 kts | 248° |
| 2026-05-04 20:44 | 43.45567 | 7.98144 | 6303 ft | 276 kts | 248° |
| 2026-05-04 20:44 | 43.44940 | 7.95653 | 6039 ft | 275 kts | 248° |
| 2026-05-04 20:44 | 43.44315 | 7.93176 | 5776 ft | 274 kts | 248° |
| 2026-05-04 20:44 | 43.43685 | 7.90702 | 5535 ft | 274 kts | 248° |
| 2026-05-04 20:45 | 43.43053 | 7.88233 | 5280 ft | 273 kts | 248° |
| 2026-05-04 20:45 | 43.42425 | 7.85776 | 5032 ft | 273 kts | 248° |
| 2026-05-04 20:45 | 43.41870 | 7.83284 | 4779 ft | 274 kts | 255° |
| 2026-05-04 20:45 | 43.41618 | 7.80690 | 4524 ft | 275 kts | 266° |
| 2026-05-04 20:46 | 43.41643 | 7.78053 | 4272 ft | 276 kts | 270° |
| 2026-05-04 20:46 | 43.41692 | 7.75416 | 4053 ft | 276 kts | 270° |
| 2026-05-04 20:46 | 43.41735 | 7.72775 | 3990 ft | 276 kts | 270° |
| 2026-05-04 20:46 | 43.41774 | 7.70127 | 3993 ft | 277 kts | 270° |
| 2026-05-04 20:47 | 43.41814 | 7.67470 | 3996 ft | 279 kts | 270° |
| 2026-05-04 20:47 | 43.41855 | 7.64805 | 3996 ft | 279 kts | 270° |
| 2026-05-04 20:47 | 43.41896 | 7.62140 | 3991 ft | 280 kts | 270° |
| 2026-05-04 20:47 | 43.41935 | 7.59459 | 3989 ft | 280 kts | 270° |
| 2026-05-04 20:48 | 43.41973 | 7.56780 | 3996 ft | 280 kts | 270° |
| 2026-05-04 20:48 | 43.42009 | 7.54103 | 3995 ft | 280 kts | 270° |
| 2026-05-04 20:48 | 43.42044 | 7.51423 | 3994 ft | 280 kts | 270° |
| 2026-05-04 20:48 | 43.42079 | 7.48752 | 3994 ft | 280 kts | 270° |
| 2026-05-04 20:49 | 43.42115 | 7.46077 | 3998 ft | 280 kts | 270° |
| 2026-05-04 20:49 | 43.42149 | 7.43406 | 3998 ft | 279 kts | 270° |
| 2026-05-04 20:49 | 43.42185 | 7.40735 | 3997 ft | 280 kts | 270° |
| 2026-05-04 20:49 | 43.42223 | 7.38058 | 3996 ft | 280 kts | 271° |
| 2026-05-04 20:50 | 43.42259 | 7.35388 | 4000 ft | 280 kts | 270° |
| 2026-05-04 20:50 | 43.42292 | 7.32706 | 4001 ft | 280 kts | 270° |
| 2026-05-04 20:50 | 43.42324 | 7.29992 | 3998 ft | 278 kts | 270° |
| 2026-05-04 20:50 | 43.42353 | 7.27413 | 3995 ft | 262 kts | 270° |
| 2026-05-04 20:51 | 43.42383 | 7.24950 | 4000 ft | 255 kts | 272° |
| 2026-05-04 20:51 | 43.42717 | 7.22587 | 3999 ft | 249 kts | 292° |
| 2026-05-04 20:51 | 43.43540 | 7.20597 | 4003 ft | 230 kts | 312° |
| 2026-05-04 20:51 | 43.44543 | 7.19022 | 4024 ft | 209 kts | 314° |
| 2026-05-04 20:52 | 43.45511 | 7.17570 | 4003 ft | 203 kts | 323° |
| 2026-05-04 20:52 | 43.46690 | 7.16560 | 3846 ft | 197 kts | 343° |
| 2026-05-04 20:52 | 43.47991 | 7.16164 | 3598 ft | 188 kts | 2° |
| 2026-05-04 20:52 | 43.49295 | 7.16053 | 3345 ft | 188 kts | 1° |
| 2026-05-04 20:53 | 43.50597 | 7.15930 | 3045 ft | 187 kts | 2° |
| 2026-05-04 20:53 | 43.51895 | 7.15805 | 2742 ft | 186 kts | 1° |
| 2026-05-04 20:53 | 43.53179 | 7.15679 | 2440 ft | 185 kts | 1° |
| 2026-05-04 20:53 | 43.54457 | 7.15554 | 2133 ft | 183 kts | 1° |
| 2026-05-04 20:54 | 43.55682 | 7.15431 | 1959 ft | 171 kts | 1° |
| 2026-05-04 20:54 | 43.56842 | 7.15315 | 1784 ft | 163 kts | 1° |
| 2026-05-04 20:54 | 43.57971 | 7.15206 | 1600 ft | 162 kts | 0° |
| 2026-05-04 20:54 | 43.59048 | 7.15136 | 1385 ft | 150 kts | 6° |
| 2026-05-04 20:55 | 43.60052 | 7.15312 | 1104 ft | 144 kts | 14° |
| 2026-05-04 20:55 | 43.60996 | 7.15734 | 885 ft | 141 kts | 22° |
| 2026-05-04 20:55 | 43.61850 | 7.16405 | 735 ft | 142 kts | 34° |
| 2026-05-04 20:55 | 43.62619 | 7.17267 | 600 ft | 142 kts | 40° |
| 2026-05-04 20:56 | 43.63353 | 7.18192 | 531 ft | 144 kts | 41° |
| 2026-05-04 20:56 | 43.64094 | 7.19102 | 370 ft | 142 kts | 35° |
| 2026-05-04 20:56 | 43.64857 | 7.19987 | 171 ft | 144 kts | 40° |
| 2026-05-04 20:56 | 43.65569 | 7.20941 | 30 ft | 137 kts | 44° |
| 2026-05-04 20:57 | 43.66032 | 7.21572 | 21 ft | 35 kts | 46° |
| 2026-05-04 20:57 | 43.66179 | 7.21779 | 22 ft | 28 kts | 45° |
| 2026-05-04 20:57 | 43.66297 | 7.21936 | 23 ft | 18 kts | 36° |
| 2026-05-04 20:57 | 43.66399 | 7.22007 | 24 ft | 15 kts | 21° |
| 2026-05-04 20:58 | 43.66493 | 7.22050 | 22 ft | 12 kts | 14° |
| 2026-05-04 20:58 | 43.66558 | 7.22025 | 23 ft | 8 kts | 326° |
| 2026-05-04 20:58 | 43.66591 | 7.21979 | 22 ft | 5 kts | 312° |
| 2026-05-04 20:58 | 43.66624 | 7.21928 | 22 ft | 12 kts | 314° |
| 2026-05-04 20:59 | 43.66637 | 7.21853 | 22 ft | 8 kts | 240° |
| 2026-05-04 20:59 | 43.66587 | 7.21778 | 22 ft | 11 kts | 224° |
| 2026-05-04 20:59 | 43.66538 | 7.21711 | 22 ft | 8 kts | 225° |
| 2026-05-04 20:59 | 43.66505 | 7.21666 | 22 ft | 6 kts | 225° |
| 2026-05-04 21:00 | 43.66458 | 7.21601 | 22 ft | 11 kts | 225° |
| 2026-05-04 21:00 | 43.66411 | 7.21534 | 22 ft | 8 kts | 225° |
| 2026-05-04 21:00 | 43.66373 | 7.21472 | 22 ft | 11 kts | 239° |
| 2026-05-04 21:00 | 43.66352 | 7.21368 | 22 ft | 11 kts | 260° |
| 2026-05-04 21:01 | 43.66341 | 7.21278 | 23 ft | 10 kts | 261° |
| 2026-05-04 21:01 | 43.66332 | 7.21193 | 22 ft | 5 kts | 263° |
| 2026-05-04 21:01 | 43.66348 | 7.21167 | 23 ft | 3 kts | 338° |
| 2026-05-04 21:01 | 43.66363 | 7.21164 | 22 ft | 2 kts | 356° |
| 2026-05-04 21:02 | 43.66388 | 7.21169 | 22 ft | 2 kts | 11° |
| 2026-05-04 21:02 | 43.66395 | 7.21171 | 22 ft | 0 kts | 12° |
| 2026-05-04 21:02 | 43.66401 | 7.21173 | 22 ft | 1 kts | 12° |
| 2026-05-04 21:02 | 43.66403 | 7.21173 | 22 ft | 0 kts | 12° |